createdAt,value
2018-03-08T00:01:03.570Z,1.90
2018-03-08T00:03:35.028Z,1.00
2018-03-08T00:06:06.006Z,1.30
2018-03-08T00:08:36.898Z,2.10
2018-03-08T00:11:07.563Z,1.10
2018-03-08T00:13:39.799Z,4.28
2018-03-08T00:16:10.918Z,1.40
2018-03-08T00:18:41.315Z,1.60
2018-03-08T00:21:12.818Z,2.00
2018-03-08T00:23:43.858Z,1.90
2018-03-08T00:26:14.952Z,1.90
2018-03-08T00:28:45.963Z,1.70
2018-03-08T00:31:17.402Z,2.10
2018-03-08T00:33:47.877Z,2.30
2018-03-08T00:36:19.320Z,2.62
2018-03-08T00:38:50.350Z,2.35
2018-03-08T00:41:21.384Z,1.45
2018-03-08T00:43:51.985Z,2.37
2018-03-08T00:46:22.766Z,3.30
2018-03-08T00:48:53.182Z,1.30
2018-03-08T00:51:24.074Z,1.60
2018-03-08T00:53:55.428Z,2.42
2018-03-08T00:56:27.694Z,1.55
2018-03-08T00:58:58.702Z,2.42
2018-03-08T01:01:31.153Z,5.45
2018-03-08T01:04:02.684Z,2.03
2018-03-08T01:06:34.495Z,5.55
2018-03-08T01:09:06.019Z,1.85
2018-03-08T01:11:37.377Z,4.12
2018-03-08T01:14:08.108Z,4.90
2018-03-08T01:16:39.955Z,4.07
2018-03-08T01:19:11.339Z,1.80
2018-03-08T01:21:43.247Z,2.80
2018-03-08T01:24:15.422Z,3.50
2018-03-08T01:26:47.126Z,2.83
2018-03-08T01:29:18.337Z,3.35
2018-03-08T01:31:49.511Z,3.92
2018-03-08T01:34:20.038Z,3.15
2018-03-08T01:36:50.898Z,3.70
2018-03-08T01:39:22.243Z,2.28
2018-03-08T01:41:52.655Z,3.28
2018-03-08T01:44:23.366Z,3.45
2018-03-08T01:46:55.438Z,3.90
2018-03-08T01:49:26.251Z,3.25
2018-03-08T01:52:06.906Z,2.75
2018-03-08T01:54:37.769Z,3.93
2018-03-08T01:57:10.397Z,2.70
2018-03-08T01:59:43.452Z,4.15
2018-03-08T02:02:14.805Z,1.75
2018-03-08T02:04:46.668Z,4.00
2018-03-08T02:07:18.518Z,2.85
2018-03-08T02:09:50.442Z,1.90
2018-03-08T02:12:21.410Z,2.95
2018-03-08T02:14:51.943Z,2.58
2018-03-08T02:17:22.575Z,1.95
2018-03-08T02:19:53.174Z,2.33
2018-03-08T02:22:23.710Z,3.30
2018-03-08T02:24:54.108Z,3.45
2018-03-08T02:27:25.316Z,3.17
2018-03-08T02:29:56.787Z,1.57
2018-03-08T02:32:27.779Z,1.70
2018-03-08T02:34:58.643Z,1.90
2018-03-08T02:37:29.121Z,4.22
2018-03-08T02:40:00.724Z,2.47
2018-03-08T02:42:32.756Z,1.60
2018-03-08T02:45:03.397Z,2.40
2018-03-08T02:47:33.946Z,1.70
2018-03-08T02:50:04.620Z,1.70
2018-03-08T02:52:35.554Z,1.50
2018-03-08T02:55:06.258Z,2.05
2018-03-08T02:57:37.318Z,1.90
2018-03-08T03:00:07.990Z,4.43
2018-03-08T03:02:38.533Z,4.07
2018-03-08T03:05:09.538Z,3.30
2018-03-08T03:07:40.308Z,2.10
2018-03-08T03:10:10.750Z,3.00
2018-03-08T03:12:41.702Z,1.77
2018-03-08T03:15:12.282Z,2.67
2018-03-08T03:17:42.855Z,1.97
2018-03-08T03:20:13.786Z,4.00
2018-03-08T03:22:44.196Z,3.92
2018-03-08T03:25:15.033Z,2.40
2018-03-08T03:27:45.506Z,2.72
2018-03-08T03:30:16.012Z,2.20
2018-03-08T03:32:47.318Z,2.12
2018-03-08T03:35:18.482Z,1.90
2018-03-08T03:37:49.180Z,2.60
2018-03-08T03:40:19.954Z,2.50
2018-03-08T03:42:51.250Z,3.10
2018-03-08T03:45:22.835Z,4.80
2018-03-08T03:47:53.562Z,4.45
2018-03-08T03:50:24.308Z,1.73
2018-03-08T03:52:54.769Z,2.00
2018-03-08T03:55:25.073Z,2.10
2018-03-08T03:57:55.291Z,2.90
2018-03-08T04:00:25.756Z,2.10
2018-03-08T04:02:56.771Z,4.30
2018-03-08T04:05:27.267Z,3.40
2018-03-08T04:07:58.822Z,2.12
2018-03-08T04:10:29.070Z,2.40
2018-03-08T04:12:59.520Z,3.58
2018-03-08T04:15:31.611Z,2.17
2018-03-08T04:18:02.846Z,2.30
2018-03-08T04:20:33.920Z,2.30
2018-03-08T04:23:04.840Z,3.37
2018-03-08T04:25:35.492Z,3.22
2018-03-08T04:28:07.166Z,1.95
2018-03-08T04:30:38.028Z,2.43
2018-03-08T04:33:08.254Z,4.68
2018-03-08T04:35:39.294Z,2.33
2018-03-08T04:38:10.402Z,7.18
2018-03-08T04:40:41.053Z,4.60
2018-03-08T04:43:11.491Z,3.23
2018-03-08T04:45:43.131Z,2.80
2018-03-08T04:48:14.492Z,2.35
2018-03-08T04:50:44.990Z,3.10
2018-03-08T04:53:16.038Z,2.50
2018-03-08T04:55:46.558Z,3.05
2018-03-08T04:58:19.210Z,2.33
2018-03-08T05:00:51.142Z,3.00
2018-03-08T05:03:28.540Z,1.60
2018-03-08T05:05:59.083Z,4.83
2018-03-08T05:08:29.496Z,2.50
2018-03-08T05:10:59.947Z,2.67
2018-03-08T05:13:30.614Z,2.05
2018-03-08T05:16:01.214Z,1.85
2018-03-08T05:18:31.765Z,2.30
2018-03-08T05:21:02.910Z,3.90
2018-03-08T05:23:33.951Z,2.80
2018-03-08T05:26:05.043Z,4.03
2018-03-08T05:28:35.333Z,2.37
2018-03-08T05:31:05.704Z,9.53
2018-03-08T05:33:37.326Z,11.27
2018-03-08T05:36:15.812Z,10.85
2018-03-08T05:38:47.605Z,8.40
2018-03-08T05:41:19.183Z,7.05
2018-03-08T05:43:50.004Z,6.57
2018-03-08T05:46:24.293Z,4.68
2018-03-08T05:48:56.805Z,4.87
2018-03-08T05:51:29.750Z,3.22
2018-03-08T05:54:00.473Z,5.47
2018-03-08T05:56:31.020Z,7.20
2018-03-08T05:59:02.038Z,2.40
2018-03-08T06:01:32.301Z,5.35
2018-03-08T06:04:03.917Z,2.00
2018-03-08T06:06:40.408Z,6.57
2018-03-08T06:09:38.605Z,3.37
2018-03-08T06:12:15.098Z,2.95
2018-03-08T06:14:46.116Z,2.17
2018-03-08T06:17:17.415Z,3.05
2018-03-08T06:19:49.271Z,6.53
2018-03-08T06:25:59.852Z,5.32
2018-03-08T06:28:46.842Z,3.30
2018-03-08T06:31:21.493Z,2.75
2018-03-08T06:36:40.642Z,3.00
2018-03-08T06:39:32.835Z,3.30
2018-03-08T06:42:31.677Z,5.83
2018-03-08T06:45:06.529Z,6.35
2018-03-08T06:47:40.869Z,4.12
2018-03-08T06:50:39.801Z,3.62
2018-03-08T06:54:22.595Z,5.12
2018-03-08T06:56:55.067Z,4.50
2018-03-08T06:59:25.391Z,3.92
2018-03-08T07:04:43.806Z,4.40
2018-03-08T07:07:15.632Z,4.18
2018-03-08T07:09:53.778Z,3.60
2018-03-08T07:12:25.119Z,3.58
2018-03-08T07:14:57.431Z,2.63
2018-03-08T07:17:28.154Z,3.55
2018-03-08T07:20:32.202Z,6.43
2018-03-08T07:23:04.284Z,2.37
2018-03-08T07:25:34.898Z,2.83
2018-03-08T07:28:06.541Z,3.87
2018-03-08T07:30:38.502Z,7.22
2018-03-08T07:33:10.602Z,3.60
2018-03-08T07:35:41.806Z,4.05
2018-03-08T07:38:36.667Z,3.33
2018-03-08T07:41:10.506Z,3.70
2018-03-08T07:43:44.032Z,2.62
2018-03-08T07:46:54.734Z,3.80
2018-03-08T07:49:25.949Z,3.50
2018-03-08T07:51:57.103Z,7.70
2018-03-08T07:54:27.414Z,3.87
2018-03-08T07:56:59.004Z,6.60
2018-03-08T07:59:29.528Z,4.43
2018-03-08T08:02:13.646Z,5.07
2018-03-08T08:04:57.692Z,7.43
2018-03-08T08:09:10.967Z,7.03
2018-03-08T08:11:43.603Z,5.00
2018-03-08T08:14:23.891Z,3.90
2018-03-08T08:16:55.259Z,5.10
2018-03-08T08:19:26.272Z,4.78
2018-03-08T08:21:56.730Z,3.80
2018-03-08T08:27:19.822Z,6.10
2018-03-08T08:29:55.862Z,3.78
2018-03-08T08:32:32.950Z,4.32
2018-03-08T08:35:10.503Z,6.25
2018-03-08T08:37:49.055Z,4.50
2018-03-08T08:40:30.149Z,4.85
2018-03-08T08:46:39.100Z,7.60
2018-03-08T08:49:30.312Z,5.28
2018-03-08T08:52:18.644Z,4.68
2018-03-08T08:54:55.492Z,6.35
2018-03-08T08:58:09.010Z,5.28
2018-03-08T09:00:40.364Z,4.03
2018-03-08T09:03:13.055Z,4.10
2018-03-08T09:05:43.515Z,3.65
2018-03-08T09:08:14.055Z,3.42
2018-03-08T09:10:45.078Z,4.03
2018-03-08T09:13:16.687Z,7.20
2018-03-08T09:15:48.614Z,5.57
2018-03-08T09:18:20.304Z,2.50
2018-03-08T09:20:50.931Z,3.10
2018-03-08T09:23:44.210Z,3.10
2018-03-08T09:26:14.776Z,3.70
2018-03-08T09:28:46.819Z,4.57
2018-03-08T09:31:18.703Z,4.82
2018-03-08T09:34:10.493Z,5.25
2018-03-08T09:36:44.444Z,7.15
2018-03-08T09:39:14.790Z,4.90
2018-03-08T09:41:54.925Z,4.30
2018-03-08T09:44:28.101Z,2.65
2018-03-08T09:46:59.794Z,1.70
2018-03-08T09:49:42.539Z,2.67
2018-03-08T09:52:26.538Z,2.40
2018-03-08T09:55:02.018Z,1.30
2018-03-08T09:57:35.036Z,1.20
2018-03-08T10:00:05.993Z,4.30
2018-03-08T10:02:40.732Z,2.00
2018-03-08T10:05:13.485Z,3.55
2018-03-08T10:08:10.724Z,1.50
2018-03-08T10:10:47.981Z,3.37
2018-03-08T10:13:23.551Z,1.00
2018-03-08T10:15:54.646Z,3.30
2018-03-08T10:22:02.079Z,1.15
2018-03-08T10:24:32.721Z,3.00
2018-03-08T10:27:03.534Z,1.90
2018-03-08T10:29:44.144Z,3.20
2018-03-08T10:32:15.765Z,1.60
2018-03-08T10:34:49.568Z,1.45
2018-03-08T10:37:41.963Z,2.08
2018-03-08T10:40:13.765Z,2.10
2018-03-08T10:42:47.700Z,3.47
2018-03-08T10:45:21.425Z,1.53
2018-03-08T10:48:02.167Z,1.67
2018-03-08T10:50:38.722Z,1.37
2018-03-08T10:53:12.564Z,1.40
2018-03-08T10:55:46.607Z,1.70
2018-03-08T10:58:23.354Z,2.70
2018-03-08T11:00:56.191Z,1.95
2018-03-08T11:03:32.840Z,1.20
2018-03-08T11:06:17.871Z,2.00
2018-03-08T11:08:50.645Z,1.60
2018-03-08T11:11:22.439Z,3.20
2018-03-08T11:13:58.338Z,1.37
2018-03-08T11:16:30.319Z,1.40
2018-03-08T11:19:02.126Z,3.95
2018-03-08T11:21:36.344Z,1.87
2018-03-08T11:24:13.708Z,1.40
2018-03-08T11:26:45.657Z,4.20
2018-03-08T11:29:18.040Z,1.80
2018-03-08T11:31:48.983Z,2.40
2018-03-08T11:34:30.675Z,2.62
2018-03-08T11:37:01.686Z,1.60
2018-03-08T11:39:34.130Z,1.75
2018-03-08T11:42:04.087Z,2.10
2018-03-08T11:44:34.494Z,1.40
2018-03-08T11:47:05.181Z,2.30
2018-03-08T11:49:39.105Z,2.90
2018-03-08T11:52:11.007Z,2.70
2018-03-08T11:54:43.346Z,1.53
2018-03-08T11:57:22.844Z,1.48
2018-03-08T12:00:00.509Z,1.48
2018-03-08T12:02:37.396Z,2.20
2018-03-08T12:05:16.547Z,1.75
2018-03-08T12:07:48.768Z,1.62
2018-03-08T12:10:23.257Z,1.95
2018-03-08T12:12:58.983Z,1.60
2018-03-08T12:15:37.475Z,3.00
2018-03-08T12:18:10.182Z,1.70
2018-03-08T12:20:41.403Z,1.90
2018-03-08T12:23:14.622Z,1.40
2018-03-08T12:32:02.742Z,2.20
2018-03-08T12:34:35.311Z,2.90
2018-03-08T12:37:06.602Z,1.70
2018-03-08T12:39:38.157Z,4.35
2018-03-08T12:42:09.406Z,2.05
2018-03-08T12:44:39.979Z,2.60
2018-03-08T12:47:11.848Z,1.62
2018-03-08T12:49:47.043Z,3.83
2018-03-08T12:55:48.005Z,3.30
2018-03-08T12:58:22.579Z,2.80
2018-03-08T13:00:54.123Z,1.70
2018-03-08T13:03:28.107Z,1.90
2018-03-08T13:05:58.988Z,4.75
2018-03-08T13:08:29.706Z,3.70
2018-03-08T13:11:40.727Z,2.30
2018-03-08T13:14:13.480Z,2.10
2018-03-08T13:16:45.028Z,4.28
2018-03-08T13:19:18.115Z,2.35
2018-03-08T13:21:49.625Z,2.13
2018-03-08T13:24:20.198Z,2.80
2018-03-08T13:26:52.423Z,1.80
2018-03-08T13:29:29.108Z,2.97
2018-03-08T13:32:03.620Z,2.10
2018-03-08T13:34:36.620Z,2.17
2018-03-08T13:37:15.682Z,2.93
2018-03-08T13:39:54.362Z,3.37
2018-03-08T13:42:31.692Z,3.00
2018-03-08T13:45:03.268Z,2.20
2018-03-08T13:47:46.562Z,2.80
2018-03-08T13:50:17.688Z,1.80
2018-03-08T13:52:51.192Z,1.30
2018-03-08T13:55:23.814Z,2.75
2018-03-08T13:57:55.442Z,2.03
2018-03-08T14:00:39.165Z,2.27
2018-03-08T14:03:22.889Z,1.55
2018-03-08T14:05:55.201Z,1.80
2018-03-08T14:08:29.686Z,2.53
2018-03-08T14:11:03.459Z,1.83
2018-03-08T14:13:35.661Z,4.95
2018-03-08T14:16:17.726Z,1.50
2018-03-08T14:18:48.539Z,2.30
2018-03-08T14:21:25.702Z,1.60
2018-03-08T14:23:57.107Z,1.87
2018-03-08T14:26:28.003Z,3.17
2018-03-08T14:28:58.279Z,1.33
2018-03-08T14:31:30.620Z,1.43
2018-03-08T14:34:15.883Z,1.50
2018-03-08T14:36:46.398Z,1.80
2018-03-08T14:42:54.230Z,1.35
2018-03-08T14:45:32.199Z,1.75
2018-03-08T14:48:04.580Z,2.22
2018-03-08T14:50:35.023Z,7.10
2018-03-08T14:53:07.801Z,7.20
2018-03-08T14:55:52.700Z,1.95
2018-03-08T14:58:43.350Z,1.50
2018-03-08T15:01:58.618Z,2.60
2018-03-08T15:08:25.552Z,3.62
2018-03-08T15:10:57.920Z,3.65
2018-03-08T15:13:29.744Z,2.50
2018-03-08T15:16:22.072Z,6.82
2018-03-08T15:26:59.782Z,2.50
2018-03-08T15:30:04.991Z,2.58
2018-03-08T15:32:38.597Z,2.30
2018-03-08T15:35:10.164Z,2.50
2018-03-08T15:37:42.915Z,1.42
2018-03-08T15:40:52.429Z,2.42
2018-03-08T15:43:34.927Z,1.60
2018-03-08T15:46:12.622Z,3.30
2018-03-08T15:52:15.591Z,1.70
2018-03-08T15:54:50.997Z,3.83
2018-03-08T16:00:59.627Z,2.85
2018-03-08T16:03:32.673Z,4.43
2018-03-08T16:06:07.516Z,2.70
2018-03-08T16:09:03.813Z,5.70
2018-03-08T16:11:45.013Z,2.72
2018-03-08T16:14:19.774Z,2.20
2018-03-08T16:16:56.996Z,3.20
2018-03-08T16:19:31.708Z,2.50
2018-03-08T16:22:02.290Z,4.65
2018-03-08T16:24:38.616Z,10.52
2018-03-08T16:27:18.182Z,11.57
2018-03-08T16:29:54.233Z,14.95
2018-03-08T16:32:28.671Z,22.23
2018-03-08T16:35:07.379Z,14.37
2018-03-08T16:37:38.091Z,12.15
2018-03-08T16:40:08.812Z,7.62
2018-03-08T16:42:42.807Z,13.43
2018-03-08T16:45:14.836Z,10.35
2018-03-08T16:47:45.608Z,7.20
2018-03-08T16:50:16.852Z,12.57
2018-03-08T16:52:52.125Z,11.52
2018-03-08T16:55:31.709Z,11.23
2018-03-08T16:58:03.756Z,8.57
2018-03-08T17:00:35.335Z,5.77
2018-03-08T17:03:07.529Z,8.83
2018-03-08T17:05:39.781Z,10.05
2018-03-08T17:08:12.170Z,7.03
2018-03-08T17:10:48.660Z,11.48
2018-03-08T17:13:20.336Z,13.60
2018-03-08T17:15:53.186Z,13.73
2018-03-08T17:18:30.263Z,10.13
2018-03-08T17:31:58.759Z,22.20
2018-03-08T17:38:33.954Z,9.85
2018-03-08T17:42:06.284Z,7.65
2018-03-08T17:44:41.458Z,8.50
2018-03-08T17:47:11.970Z,10.93
2018-03-08T17:52:50.470Z,18.90
2018-03-08T17:55:26.649Z,18.70
2018-03-08T17:57:58.616Z,12.93
2018-03-08T18:00:31.200Z,12.57
2018-03-08T18:03:04.531Z,14.48
2018-03-08T18:05:36.607Z,14.23
2018-03-08T18:08:11.784Z,12.15
2018-03-08T18:10:48.140Z,12.48
2018-03-08T18:13:21.700Z,12.75
2018-03-08T18:15:53.950Z,14.70
2018-03-08T18:18:25.650Z,13.95
2018-03-08T18:20:57.607Z,8.20
2018-03-08T18:23:29.692Z,6.37
2018-03-08T18:26:01.641Z,9.90
2018-03-08T18:32:38.914Z,6.80
2018-03-08T18:35:11.037Z,13.80
2018-03-08T18:38:20.894Z,12.68
2018-03-08T18:40:56.851Z,9.48
2018-03-08T18:43:29.704Z,11.12
2018-03-08T18:46:01.073Z,7.43
2018-03-08T18:48:35.840Z,7.30
2018-03-08T18:51:34.196Z,6.20
2018-03-08T18:54:06.622Z,7.05
2018-03-08T18:56:37.501Z,6.57
2018-03-08T18:59:12.162Z,5.45
2018-03-08T19:01:58.106Z,7.67
2018-03-08T19:04:32.575Z,7.03
2018-03-08T19:07:08.569Z,9.50
2018-03-08T19:09:44.478Z,9.25
2018-03-08T19:12:21.793Z,9.75
2018-03-08T19:15:20.611Z,6.60
2018-03-08T19:17:51.387Z,5.65
2018-03-08T19:20:23.371Z,4.62
2018-03-08T19:22:57.579Z,9.10
2018-03-08T19:25:30.925Z,5.68
2018-03-08T19:28:02.075Z,3.55
2018-03-08T19:30:32.634Z,6.15
2018-03-08T19:33:03.273Z,6.75
2018-03-08T19:35:33.806Z,4.30
2018-03-08T19:38:05.183Z,6.28
2018-03-08T19:40:35.739Z,7.85
2018-03-08T19:43:06.851Z,10.20
2018-03-08T19:45:38.091Z,4.60
2018-03-08T19:48:09.002Z,5.97
2018-03-08T19:50:40.359Z,6.82
2018-03-08T19:53:11.132Z,3.17
2018-03-08T19:55:41.753Z,8.65
2018-03-08T19:58:12.663Z,6.20
2018-03-08T20:00:43.980Z,8.37
2018-03-08T20:03:14.605Z,8.20
2018-03-08T20:05:45.179Z,4.32
2018-03-08T20:08:16.487Z,6.47
2018-03-08T20:10:48.050Z,3.90
2018-03-08T20:13:18.534Z,3.08
2018-03-08T20:15:49.651Z,1.80
2018-03-08T20:18:27.067Z,1.70
2018-03-08T20:20:58.611Z,3.20
2018-03-08T20:23:28.992Z,2.53
2018-03-08T20:26:01.153Z,2.28
2018-03-08T20:28:32.717Z,2.20
2018-03-08T20:31:04.124Z,1.70
2018-03-08T20:33:34.916Z,3.28
2018-03-08T20:36:21.730Z,5.35
2018-03-08T20:38:58.171Z,2.55
2018-03-08T20:41:29.751Z,3.10
2018-03-08T20:44:00.583Z,3.03
2018-03-08T20:46:31.389Z,3.00
2018-03-08T20:49:01.991Z,2.00
2018-03-08T20:51:32.582Z,1.25
2018-03-08T20:54:02.999Z,3.55
2018-03-08T20:56:34.306Z,2.62
2018-03-08T20:59:05.863Z,3.15
2018-03-08T21:01:37.154Z,1.50
2018-03-08T21:04:08.867Z,1.52
2018-03-08T21:06:40.037Z,2.60
2018-03-08T21:09:13.436Z,4.80
2018-03-08T21:11:43.758Z,1.40
2018-03-08T21:14:14.025Z,1.40
2018-03-08T21:16:44.965Z,4.30
2018-03-08T21:19:15.823Z,2.00
2018-03-08T21:21:46.086Z,2.10
2018-03-08T21:24:16.433Z,2.40
2018-03-08T21:26:46.969Z,2.28
2018-03-08T21:29:17.639Z,3.22
2018-03-08T21:31:48.260Z,3.90
2018-03-08T21:34:20.170Z,3.92
2018-03-08T21:36:51.316Z,2.67
2018-03-08T21:39:21.828Z,2.62
2018-03-08T21:41:52.813Z,2.45
2018-03-08T21:44:24.876Z,4.12
2018-03-08T21:46:56.154Z,3.17
2018-03-08T21:49:28.888Z,3.60
2018-03-08T21:52:01.551Z,2.90
2018-03-08T21:54:32.301Z,2.00
2018-03-08T21:57:03.903Z,2.37
2018-03-08T21:59:34.947Z,2.85
2018-03-08T22:02:06.859Z,1.80
2018-03-08T22:04:39.768Z,1.60
2018-03-08T22:07:15.611Z,5.12
2018-03-08T22:09:50.564Z,1.90
2018-03-08T22:12:21.828Z,4.17
2018-03-08T22:14:52.737Z,2.30
2018-03-08T22:17:26.769Z,1.20
2018-03-08T22:20:02.229Z,1.50
2018-03-08T22:22:35.577Z,3.25
2018-03-08T22:25:12.244Z,3.90
2018-03-08T22:27:43.464Z,1.52
2018-03-08T22:30:14.153Z,1.58
2018-03-08T22:32:44.479Z,1.30
2018-03-08T22:35:15.774Z,2.55
2018-03-08T22:37:46.027Z,1.80
2018-03-08T22:40:16.587Z,2.35
2018-03-08T22:42:47.483Z,2.78
2018-03-08T22:45:18.046Z,1.87
2018-03-08T22:47:48.433Z,3.43
2018-03-08T22:50:20.118Z,1.87
2018-03-08T22:52:51.348Z,2.97
2018-03-08T22:55:22.786Z,2.50
2018-03-08T22:57:53.531Z,1.58
2018-03-08T23:00:23.743Z,2.10
2018-03-08T23:02:58.359Z,4.10
2018-03-08T23:05:29.015Z,1.20
2018-03-08T23:07:59.569Z,1.80
2018-03-08T23:10:31.422Z,1.83
2018-03-08T23:13:03.633Z,1.40
2018-03-08T23:15:34.952Z,2.73
2018-03-08T23:18:08.017Z,2.00
2018-03-08T23:20:42.447Z,3.70
2018-03-08T23:23:13.930Z,1.40
2018-03-08T23:25:45.491Z,1.70
2018-03-08T23:28:16.755Z,1.83
2018-03-08T23:30:47.804Z,1.83
2018-03-08T23:33:19.326Z,2.23
2018-03-08T23:35:50.738Z,2.70
2018-03-08T23:38:21.630Z,2.40
2018-03-08T23:40:53.247Z,1.20
2018-03-08T23:43:25.205Z,1.60
2018-03-08T23:45:55.944Z,1.50
2018-03-08T23:48:28.769Z,1.80
2018-03-08T23:50:59.387Z,1.40
2018-03-08T23:53:30.257Z,1.55
2018-03-08T23:56:00.690Z,2.70
2018-03-08T23:58:31.590Z,3.08
